createdAt,value
2023-06-03T00:03:38.340Z,9.50
2023-06-03T00:08:45.716Z,9.45
2023-06-03T00:19:31.212Z,9.29
2023-06-03T00:24:38.644Z,9.16
2023-06-03T00:29:46.222Z,9.05
2023-06-03T00:34:53.649Z,9.01
2023-06-03T00:40:01.782Z,8.99
2023-06-03T00:45:11.211Z,8.84
2023-06-03T00:50:18.978Z,8.72
2023-06-03T00:55:27.054Z,8.69
2023-06-03T01:00:34.614Z,8.65
2023-06-03T01:05:42.460Z,8.58
2023-06-03T01:10:57.048Z,8.48
2023-06-03T01:16:06.587Z,8.44
2023-06-03T01:21:16.635Z,8.54
2023-06-03T01:26:24.211Z,8.62
2023-06-03T01:31:31.468Z,8.67
2023-06-03T01:36:39.040Z,8.74
2023-06-03T01:41:47.971Z,8.78
2023-06-03T01:46:59.156Z,8.80
2023-06-03T01:52:07.731Z,8.81
2023-06-03T01:57:18.211Z,8.80
2023-06-03T02:02:26.209Z,8.83
2023-06-03T02:07:34.029Z,8.88
2023-06-03T02:12:41.296Z,8.88
2023-06-03T02:17:50.252Z,8.85
2023-06-03T02:22:58.631Z,8.84
2023-06-03T02:28:07.822Z,8.81
2023-06-03T02:33:15.174Z,8.75
2023-06-03T02:38:22.696Z,8.68
2023-06-03T02:43:29.880Z,8.68
2023-06-03T02:48:37.950Z,8.65
2023-06-03T02:53:45.767Z,8.62
2023-06-03T02:58:54.045Z,8.61
2023-06-03T03:04:02.070Z,8.56
2023-06-03T03:09:09.720Z,8.56
2023-06-03T03:14:18.525Z,8.55
2023-06-03T03:19:26.339Z,8.53
2023-06-03T03:24:34.058Z,8.51
2023-06-03T03:29:45.751Z,8.43
2023-06-03T03:35:09.119Z,8.39
2023-06-03T03:40:22.198Z,8.40
2023-06-03T03:45:36.339Z,8.58
2023-06-03T03:50:46.238Z,8.77
2023-06-03T03:55:55.421Z,8.88
2023-06-03T04:01:10.658Z,8.89
2023-06-03T04:06:34.309Z,8.84
2023-06-03T04:11:44.183Z,8.70
2023-06-03T04:17:00.437Z,8.64
2023-06-03T04:22:11.171Z,8.63
2023-06-03T04:27:18.988Z,8.67
2023-06-03T04:32:27.052Z,8.73
2023-06-03T04:37:38.230Z,8.82
2023-06-03T04:42:45.812Z,8.94
2023-06-03T04:47:59.831Z,9.13
2023-06-03T04:53:07.960Z,9.33
2023-06-03T04:58:20.412Z,9.47
2023-06-03T05:03:28.760Z,9.60
2023-06-03T05:08:36.346Z,9.75
2023-06-03T05:13:44.487Z,9.94
2023-06-03T05:18:53.929Z,10.09
2023-06-03T05:24:01.542Z,10.29
2023-06-03T05:29:09.249Z,10.48
2023-06-03T05:34:16.999Z,10.79
2023-06-03T05:39:24.366Z,10.98
2023-06-03T05:44:31.565Z,11.14
2023-06-03T05:49:38.870Z,11.40
2023-06-03T05:54:49.622Z,11.60
2023-06-03T05:59:57.059Z,11.75
2023-06-03T06:05:05.476Z,11.96
2023-06-03T06:10:14.602Z,12.16
2023-06-03T06:15:21.948Z,12.31
2023-06-03T06:20:29.538Z,12.41
2023-06-03T06:25:36.802Z,12.45
2023-06-03T06:30:45.822Z,12.42
2023-06-03T06:35:53.230Z,12.43
2023-06-03T06:41:01.731Z,12.45
2023-06-03T06:46:10.102Z,12.46
2023-06-03T06:51:20.881Z,12.53
2023-06-03T06:56:29.144Z,12.55
2023-06-03T07:01:37.232Z,12.47
2023-06-03T07:06:44.973Z,12.50
2023-06-03T07:11:52.430Z,12.50
2023-06-03T07:17:00.225Z,12.53
2023-06-03T07:22:09.690Z,12.63
2023-06-03T07:27:29.562Z,12.74
2023-06-03T07:32:37.240Z,12.84
2023-06-03T07:37:45.522Z,12.94
2023-06-03T07:42:53.395Z,13.00
2023-06-03T07:48:03.010Z,13.01
2023-06-03T07:53:10.478Z,13.02
2023-06-03T07:58:19.229Z,13.07
2023-06-03T08:03:28.696Z,13.14
2023-06-03T08:08:37.817Z,13.20
2023-06-03T08:13:46.022Z,13.30
2023-06-03T08:18:56.547Z,13.39
2023-06-03T08:24:04.070Z,13.47
2023-06-03T08:29:11.698Z,13.56
2023-06-03T08:34:19.247Z,13.77
2023-06-03T08:39:26.646Z,13.91
2023-06-03T08:44:44.113Z,13.96
2023-06-03T08:50:02.186Z,14.13
2023-06-03T08:55:12.215Z,14.14
2023-06-03T09:00:30.761Z,14.14
2023-06-03T09:05:38.918Z,14.09
2023-06-03T09:10:50.144Z,14.12
2023-06-03T09:15:58.655Z,14.14
2023-06-03T09:21:07.252Z,14.38
2023-06-03T09:26:15.304Z,14.62
2023-06-03T09:31:23.469Z,14.82
2023-06-03T09:36:31.998Z,14.92
2023-06-03T09:41:40.566Z,15.01
2023-06-03T09:46:53.215Z,15.18
2023-06-03T09:52:00.918Z,15.33
2023-06-03T09:57:15.867Z,15.44
2023-06-03T10:02:25.265Z,15.54
2023-06-03T10:07:33.450Z,15.50
2023-06-03T10:12:41.323Z,15.50
2023-06-03T10:17:50.573Z,15.49
2023-06-03T10:23:08.695Z,15.47
2023-06-03T10:28:17.002Z,15.54
2023-06-03T10:33:24.671Z,15.60
2023-06-03T10:38:33.416Z,15.63
2023-06-03T10:43:41.957Z,15.69
2023-06-03T10:48:52.001Z,15.77
2023-06-03T10:54:19.451Z,15.78
2023-06-03T10:59:30.052Z,15.83
2023-06-03T11:04:39.330Z,15.86
2023-06-03T11:09:46.709Z,15.86
2023-06-03T11:14:58.743Z,15.95
2023-06-03T11:20:08.592Z,16.04
2023-06-03T11:25:33.787Z,16.06
2023-06-03T11:30:57.910Z,16.04
2023-06-03T11:36:43.944Z,16.02
2023-06-03T11:42:11.819Z,15.96
2023-06-03T11:47:19.355Z,16.01
2023-06-03T11:52:27.218Z,16.01
2023-06-03T11:57:35.790Z,15.96
2023-06-03T12:02:43.710Z,15.99
2023-06-03T12:08:00.973Z,16.13
2023-06-03T12:13:08.550Z,16.21
2023-06-03T12:18:16.164Z,16.27
2023-06-03T12:23:24.083Z,16.42
2023-06-03T12:28:33.229Z,16.46
2023-06-03T12:33:44.319Z,16.48
2023-06-03T12:38:59.460Z,16.59
2023-06-03T12:44:07.971Z,16.67
2023-06-03T12:49:22.136Z,16.68
2023-06-03T12:54:30.600Z,16.75
2023-06-03T12:59:55.897Z,16.83
2023-06-03T13:05:04.405Z,16.86
2023-06-03T13:10:14.918Z,16.88
2023-06-03T13:15:22.198Z,16.98
2023-06-03T13:20:30.296Z,17.02
2023-06-03T13:25:38.239Z,17.04
2023-06-03T13:30:45.955Z,17.04
2023-06-03T13:35:53.845Z,17.05
2023-06-03T13:41:01.750Z,17.11
2023-06-03T13:46:13.041Z,17.21
2023-06-03T13:51:20.307Z,17.29
2023-06-03T13:56:27.654Z,17.35
2023-06-03T14:01:35.134Z,17.42
2023-06-03T14:06:42.886Z,17.41
2023-06-03T14:11:51.554Z,17.34
2023-06-03T14:16:59.412Z,17.27
2023-06-03T14:22:08.057Z,17.26
2023-06-03T14:27:16.501Z,17.33
2023-06-03T14:32:24.787Z,17.35
2023-06-03T14:37:32.425Z,17.35
2023-06-03T14:42:39.953Z,17.34
2023-06-03T14:47:47.384Z,17.39
2023-06-03T14:52:54.840Z,17.36
2023-06-03T14:58:02.481Z,17.30
2023-06-03T15:03:10.047Z,17.29
2023-06-03T15:08:17.397Z,17.28
2023-06-03T15:13:25.003Z,17.27
2023-06-03T15:18:32.460Z,17.31
2023-06-03T15:23:40.405Z,17.30
2023-06-03T15:28:47.775Z,17.26
2023-06-03T15:33:54.963Z,17.21
2023-06-03T15:39:03.695Z,17.20
2023-06-03T15:44:11.244Z,17.22
2023-06-03T15:49:18.888Z,17.27
2023-06-03T15:54:26.460Z,17.24
2023-06-03T15:59:33.873Z,17.24
2023-06-03T16:04:43.016Z,17.27
2023-06-03T16:09:50.619Z,17.30
2023-06-03T16:14:58.070Z,17.31
2023-06-03T16:20:09.155Z,17.26
2023-06-03T16:25:17.956Z,17.20
2023-06-03T16:30:25.929Z,17.15
2023-06-03T16:35:33.926Z,17.13
2023-06-03T16:40:41.284Z,17.12
2023-06-03T16:45:48.876Z,17.10
2023-06-03T16:50:56.605Z,17.07
2023-06-03T16:56:03.934Z,17.07
2023-06-03T17:01:11.441Z,17.04
2023-06-03T17:06:18.884Z,17.02
2023-06-03T17:11:26.809Z,17.01
2023-06-03T17:16:34.952Z,17.01
2023-06-03T17:21:44.159Z,17.01
2023-06-03T17:26:51.933Z,16.98
2023-06-03T17:31:59.398Z,16.94
2023-06-03T17:37:07.932Z,16.95
2023-06-03T17:42:16.035Z,16.99
2023-06-03T17:47:24.119Z,16.96
2023-06-03T17:52:31.539Z,16.90
2023-06-03T17:57:47.042Z,16.92
2023-06-03T18:02:54.478Z,16.76
2023-06-03T18:08:02.257Z,16.58
2023-06-03T18:13:09.746Z,16.43
2023-06-03T18:18:17.179Z,16.32
2023-06-03T18:23:24.622Z,16.23
2023-06-03T18:28:32.506Z,16.14
2023-06-03T18:33:40.184Z,15.99
2023-06-03T18:38:48.341Z,15.86
2023-06-03T18:43:55.652Z,15.79
2023-06-03T18:49:03.551Z,15.68
2023-06-03T18:54:11.476Z,15.60
2023-06-03T18:59:19.257Z,15.50
2023-06-03T19:04:27.635Z,15.43
2023-06-03T19:09:35.293Z,15.36
2023-06-03T19:14:43.432Z,15.27
2023-06-03T19:19:50.823Z,15.17
2023-06-03T19:24:58.504Z,15.03
2023-06-03T19:30:08.655Z,14.89
2023-06-03T19:35:16.644Z,14.78
2023-06-03T19:40:24.148Z,14.72
2023-06-03T19:45:31.644Z,14.64
2023-06-03T19:50:40.344Z,14.53
2023-06-03T19:55:48.180Z,14.44
2023-06-03T20:00:56.209Z,14.34
2023-06-03T20:06:04.255Z,14.26
2023-06-03T20:11:12.056Z,14.20
2023-06-03T20:16:21.123Z,14.13
2023-06-03T20:21:28.984Z,14.04
2023-06-03T20:26:36.595Z,13.99
2023-06-03T20:31:44.625Z,13.95
2023-06-03T20:36:52.920Z,13.91
2023-06-03T20:42:00.207Z,13.89
2023-06-03T20:47:14.000Z,13.86
2023-06-03T20:52:21.609Z,13.80
2023-06-03T20:57:29.646Z,13.77
2023-06-03T21:02:37.568Z,13.72
2023-06-03T21:07:45.024Z,13.61
2023-06-03T21:12:53.381Z,13.52
2023-06-03T21:18:01.338Z,13.44
2023-06-03T21:23:09.496Z,13.37
2023-06-03T21:28:17.046Z,13.29
2023-06-03T21:33:26.692Z,13.19
2023-06-03T21:38:35.126Z,13.08
2023-06-03T21:43:44.368Z,13.00
2023-06-03T21:48:51.670Z,12.86
2023-06-03T21:53:59.182Z,12.67
2023-06-03T21:59:06.817Z,12.45
2023-06-03T22:04:16.870Z,12.30
2023-06-03T22:09:24.256Z,12.17
2023-06-03T22:14:34.781Z,12.04
2023-06-03T22:19:42.214Z,11.93
2023-06-03T22:24:49.553Z,11.81
2023-06-03T22:29:57.368Z,11.72
2023-06-03T22:35:05.105Z,11.58
2023-06-03T22:40:13.592Z,11.46
2023-06-03T22:45:21.262Z,11.46
2023-06-03T22:50:28.992Z,11.48
2023-06-03T22:55:36.376Z,11.49
2023-06-03T23:00:44.510Z,11.49
2023-06-03T23:05:52.276Z,11.48
2023-06-03T23:10:59.846Z,11.44
2023-06-03T23:16:08.031Z,11.32
2023-06-03T23:21:15.890Z,11.16
2023-06-03T23:26:23.680Z,11.00
2023-06-03T23:31:31.150Z,10.84
2023-06-03T23:36:38.827Z,10.64
2023-06-03T23:41:46.384Z,10.39
2023-06-03T23:46:54.125Z,10.11
2023-06-03T23:52:03.616Z,9.91
2023-06-03T23:57:11.664Z,9.74
